Terminal Aerodrome Forecast
Issued by NWS

Home | Current Version | Previous Version | Text Only | Print | Product List | Glossary On
Versions: 1 2 3 4 5 6 7 8 9 10 11 12 13 14 15 16 17
000
FTAK31 PAJN 231100
TAFAKT
TAF
PAKT 231123Z 2312/2412 14004KT P6SM OVC025
     FM231900 VRB05KT P6SM SCT025 BKN040
     FM240100 VRB05KT P6SM SCT040 SCT100
     FM240600 31005KT P6SM SCT100
      AMD LTD TO CLD VIS AND WIND 2312/2315=

USA.gov is the U.S. government's official web portal to all federal, state and local government web resources and services.